Abu Dhabi, United Arab Emirates

6:46 PM GST on September 23, 2014 (GMT +0400)
Abu Dhabi Bateen Airport | Change Station
CLOSE
Current Station
Airport
Location: Abu Dhabi Bateen Airport,
Elevation: 16 ft
Nearby Weather Stations

Elev 16 ft 24.43 °N, 54.46 °E | Updated 46 minutes ago

Clear
Clear
93 °F
Feels Like 110 °F
N
12
Wind Variable Wind from NNW

Today
High -- | Low -- °F
--% Chance of Precip.
Yesterday
High -- | Low -- °F
Precip. -- in
6:11 AM 6:18 PM
Waning Crescent, 0% visible
Pressure 29.65 in
Visibility 5.6 miles
Clouds
Heat Index 110 °F
Dew Point 79 °F
Humidity 63%
Rainfall 0.00 in
Snow Depth Not available.
UV Not available.
Pollen Not available.
Air Quality Not available.
Flu Activity Not available.
METAR OMAD 231400Z 33010KT 9000 NSC 34/26 Q1004 A2965 NOSIG

More Conditions Fewer Conditions

Pressure 29.65 in
Visibility 5.6 miles
Clouds
Heat Index 110 °F
Dew Point 79 °F
Humidity 63%
Rainfall 0.00 in
Snow Depth Not available.
UV Not available.
Pollen Not available.
Air Quality Not available.
Flu Activity Not available.
METAR OMAD 231400Z 33010KT 9000 NSC 34/26 Q1004 A2965 NOSIG

More Conditions Fewer Conditions

10-Day Weather Forecast

Almanac

Astronomy

Sep. 23, 2014 Rise Set
Actual Time 6:11 AM GST 6:18 PM GST
Civil Twilight 5:48 AM GST 6:40 PM GST
Nautical Twilight 5:22 AM GST 7:07 PM GST
Astronomical Twilight 4:55 AM GST 7:33 PM GST
Moon 5:16 AM GST 5:43 PM GST
Length of Visible Light 12h 52m
Length of Day
12h 06m
Tomorrow will be 1m 24s shorter.
Waning Crescent, 0% of the Moon is Illuminated
Today
Waning Crescent
Sep 24
New
Oct 1
First Quarter
Oct 8
Full
Oct 15
Last Quarter

Today's Extremes

Country Highs Country Lows

Community

WunderPhotos

Upload Photos

1,755,711 photos uploaded!

Nearby

Snow Depth

Not available.

Earthquake Activity

City Distance Mag. Time & Date
No recent earthquake activity has been reported nearby.
Minimum magnitude displayed is 2.5.

Coastal Water Temperatures

Place Temperature
No Stations Reporting

Nearby Weather Stations